createdAt,value
2022-08-28T00:00:20.662Z,11.90
2022-08-28T00:02:48.083Z,8.93
2022-08-28T00:05:17.102Z,9.98
2022-08-28T00:07:47.639Z,10.63
2022-08-28T00:10:17.484Z,10.52
2022-08-28T00:12:47.005Z,10.20
2022-08-28T00:15:17.435Z,14.23
2022-08-28T00:17:44.822Z,11.70
2022-08-28T00:20:12.915Z,9.30
2022-08-28T00:22:40.520Z,11.95
2022-08-28T00:25:09.489Z,8.43
2022-08-28T00:27:55.048Z,10.13
2022-08-28T00:30:26.913Z,14.18
2022-08-28T00:32:55.680Z,11.35
2022-08-28T00:35:23.817Z,9.23
2022-08-28T00:37:51.202Z,13.68
2022-08-28T00:40:19.972Z,10.77
2022-08-28T00:42:55.706Z,9.43
2022-08-28T00:45:24.037Z,8.02
2022-08-28T00:47:52.856Z,11.18
2022-08-28T00:50:23.111Z,12.60
2022-08-28T00:52:53.455Z,9.95
2022-08-28T00:55:23.041Z,12.07
2022-08-28T00:57:56.519Z,12.63
2022-08-28T01:00:33.800Z,10.18
2022-08-28T01:03:00.558Z,12.43
2022-08-28T01:05:28.903Z,10.10
2022-08-28T01:07:58.753Z,10.20
2022-08-28T01:10:28.116Z,9.45
2022-08-28T01:12:56.911Z,12.48
2022-08-28T01:15:28.348Z,13.75
2022-08-28T01:18:04.647Z,11.80
2022-08-28T01:20:35.799Z,18.58
2022-08-28T01:23:07.055Z,13.95
2022-08-28T01:25:35.795Z,10.85
2022-08-28T01:28:05.236Z,13.43
2022-08-28T01:30:32.494Z,9.73
2022-08-28T01:32:59.209Z,12.55
2022-08-28T01:35:31.136Z,12.80
2022-08-28T01:37:57.801Z,18.85
2022-08-28T01:40:39.566Z,16.00
2022-08-28T01:43:14.883Z,12.57
2022-08-28T01:45:45.040Z,11.98
2022-08-28T01:48:14.296Z,14.68
2022-08-28T01:50:42.205Z,18.75
2022-08-28T01:53:12.387Z,14.43
2022-08-28T01:55:39.340Z,16.38
2022-08-28T01:58:06.908Z,15.25
2022-08-28T02:00:33.804Z,14.00
2022-08-28T02:03:00.880Z,12.23
2022-08-28T02:05:30.486Z,13.45
2022-08-28T02:07:57.756Z,11.10
2022-08-28T02:10:25.323Z,16.53
2022-08-28T02:12:53.357Z,10.13
2022-08-28T02:15:20.034Z,14.70
2022-08-28T02:17:50.298Z,13.45
2022-08-28T02:20:17.325Z,12.32
2022-08-28T02:22:44.526Z,15.63
2022-08-28T02:25:12.060Z,14.52
2022-08-28T02:27:39.060Z,12.55
2022-08-28T02:30:08.032Z,13.25
2022-08-28T02:32:35.164Z,17.08
2022-08-28T02:35:02.630Z,14.63
2022-08-28T02:37:29.143Z,11.95
2022-08-28T02:39:58.076Z,18.15
2022-08-28T02:42:26.277Z,11.75
2022-08-28T02:44:52.883Z,13.02
2022-08-28T02:47:19.583Z,14.75
2022-08-28T02:49:46.096Z,14.77
2022-08-28T02:52:12.809Z,14.13
2022-08-28T02:54:40.060Z,15.35
2022-08-28T02:57:08.323Z,15.48
2022-08-28T02:59:38.579Z,16.05
2022-08-28T03:02:07.263Z,17.67
2022-08-28T03:04:35.550Z,17.20
2022-08-28T03:07:02.548Z,11.05
2022-08-28T03:09:29.217Z,15.40
2022-08-28T03:11:55.759Z,14.52
2022-08-28T03:14:22.995Z,17.75
2022-08-28T03:16:50.206Z,15.25
2022-08-28T03:19:16.749Z,16.23
2022-08-28T03:21:43.255Z,13.30
2022-08-28T03:24:10.206Z,13.40
2022-08-28T03:26:41.729Z,14.77
2022-08-28T03:29:08.260Z,13.30
2022-08-28T03:31:36.134Z,17.27
2022-08-28T03:34:02.638Z,13.18
2022-08-28T03:36:29.559Z,13.00
2022-08-28T03:38:59.263Z,17.20
2022-08-28T03:41:29.094Z,14.98
2022-08-28T03:43:57.682Z,12.90
2022-08-28T03:48:52.327Z,13.23
2022-08-28T03:51:29.393Z,12.50
2022-08-28T03:53:57.991Z,13.55
2022-08-28T03:56:25.968Z,15.15
2022-08-28T03:58:57.477Z,17.23
2022-08-28T04:01:24.763Z,12.73
2022-08-28T04:03:51.522Z,16.90
2022-08-28T04:06:19.489Z,13.10
2022-08-28T04:08:46.457Z,14.82
2022-08-28T04:11:13.118Z,18.73
2022-08-28T04:13:41.567Z,14.55
2022-08-28T04:16:10.951Z,12.77
2022-08-28T04:18:40.577Z,15.52
2022-08-28T04:21:11.728Z,15.38
2022-08-28T04:23:39.708Z,11.98
2022-08-28T04:26:07.902Z,13.90
2022-08-28T04:28:35.374Z,12.45
2022-08-28T04:31:03.088Z,13.18
2022-08-28T04:33:30.491Z,15.30
2022-08-28T04:35:57.438Z,11.82
2022-08-28T04:38:24.267Z,11.75
2022-08-28T04:40:50.809Z,14.98
2022-08-28T04:43:17.403Z,9.02
2022-08-28T04:45:45.670Z,12.15
2022-08-28T04:48:13.714Z,13.93
2022-08-28T04:50:48.906Z,14.68
2022-08-28T04:53:18.816Z,10.75
2022-08-28T04:55:54.072Z,16.00
2022-08-28T04:58:23.993Z,16.83
2022-08-28T05:00:52.924Z,11.60
2022-08-28T05:05:55.091Z,9.15
2022-08-28T05:08:24.678Z,12.30
2022-08-28T05:10:51.185Z,10.93
2022-08-28T05:13:18.587Z,10.60
2022-08-28T05:15:48.240Z,16.05
2022-08-28T05:18:16.746Z,15.98
2022-08-28T05:20:45.912Z,17.73
2022-08-28T05:23:13.554Z,17.58
2022-08-28T05:25:43.076Z,15.13
2022-08-28T05:28:12.277Z,12.80
2022-08-28T05:30:41.343Z,11.90
2022-08-28T05:33:09.897Z,13.90
2022-08-28T05:38:05.791Z,15.32
2022-08-28T05:40:32.500Z,11.57
2022-08-28T05:42:59.376Z,13.73
2022-08-28T05:45:25.930Z,15.70
2022-08-28T05:47:52.732Z,11.45
2022-08-28T05:50:19.240Z,12.93
2022-08-28T05:52:45.722Z,11.55
2022-08-28T05:55:13.238Z,13.15
2022-08-28T05:57:40.938Z,12.38
2022-08-28T06:00:13.684Z,13.90
2022-08-28T06:02:42.055Z,11.60
2022-08-28T06:05:12.931Z,13.57
2022-08-28T06:07:41.047Z,12.23
2022-08-28T06:10:10.578Z,16.42
2022-08-28T06:12:37.941Z,13.55
2022-08-28T06:15:06.016Z,14.77
2022-08-28T06:17:32.684Z,13.40
2022-08-28T06:19:59.297Z,14.90
2022-08-28T06:22:25.806Z,10.80
2022-08-28T06:24:52.343Z,14.60
2022-08-28T06:27:18.919Z,12.65
2022-08-28T06:29:45.857Z,10.20
2022-08-28T06:32:13.259Z,11.25
2022-08-28T06:34:39.990Z,8.38
2022-08-28T06:37:06.664Z,14.75
2022-08-28T06:39:33.164Z,11.70
2022-08-28T06:41:59.972Z,9.05
2022-08-28T06:44:27.981Z,14.05
2022-08-28T06:46:54.834Z,12.90
2022-08-28T06:49:21.935Z,13.73
2022-08-28T06:51:48.742Z,18.45
2022-08-28T06:54:21.410Z,15.77
2022-08-28T06:56:49.514Z,14.00
2022-08-28T06:59:16.032Z,13.65
2022-08-28T07:01:42.577Z,13.77
2022-08-28T07:04:11.944Z,12.55
2022-08-28T07:06:41.272Z,21.30
2022-08-28T07:09:11.092Z,20.27
2022-08-28T07:11:38.576Z,11.27
2022-08-28T07:14:06.908Z,8.32
2022-08-28T07:16:38.320Z,11.68
2022-08-28T07:19:11.253Z,13.23
2022-08-28T07:21:40.003Z,17.90
2022-08-28T07:24:08.520Z,10.43
2022-08-28T07:26:35.864Z,8.20
2022-08-28T07:29:10.951Z,9.93
2022-08-28T07:31:46.496Z,13.70
2022-08-28T07:34:14.660Z,10.20
2022-08-28T07:36:41.985Z,14.65
2022-08-28T07:39:10.066Z,10.45
2022-08-28T07:41:40.119Z,16.35
2022-08-28T07:44:26.319Z,9.70
2022-08-28T07:46:57.975Z,18.15
2022-08-28T07:49:25.711Z,14.52
2022-08-28T07:51:54.202Z,17.52
2022-08-28T07:54:21.467Z,11.20
2022-08-28T07:56:47.966Z,13.65
2022-08-28T07:59:19.359Z,7.57
2022-08-28T08:01:50.681Z,10.13
2022-08-28T08:04:23.762Z,6.38
2022-08-28T08:06:57.618Z,7.13
2022-08-28T08:09:25.341Z,10.95
2022-08-28T08:11:52.291Z,13.20
2022-08-28T08:14:18.943Z,15.18
2022-08-28T08:16:47.416Z,8.45
2022-08-28T08:19:15.514Z,8.90
2022-08-28T08:21:54.679Z,12.07
2022-08-28T08:24:37.371Z,18.23
2022-08-28T08:27:04.096Z,12.90
2022-08-28T08:29:53.987Z,11.45
2022-08-28T08:32:20.627Z,10.70
2022-08-28T08:34:47.358Z,17.17
2022-08-28T08:37:14.121Z,10.98
2022-08-28T08:39:42.563Z,12.95
2022-08-28T08:42:23.032Z,11.18
2022-08-28T08:44:51.960Z,9.63
2022-08-28T08:47:51.535Z,9.13
2022-08-28T08:50:30.891Z,7.80
2022-08-28T08:53:23.459Z,11.23
2022-08-28T08:55:57.860Z,7.30
2022-08-28T08:58:36.614Z,11.30
2022-08-28T09:01:31.373Z,11.50
2022-08-28T09:04:04.298Z,8.80
2022-08-28T09:06:59.440Z,10.77
2022-08-28T09:09:41.935Z,12.63
2022-08-28T09:12:14.099Z,10.40
2022-08-28T09:15:05.196Z,9.73
2022-08-28T09:17:47.889Z,8.55
2022-08-28T09:20:25.916Z,10.85
2022-08-28T09:22:59.836Z,8.95
2022-08-28T09:25:44.626Z,10.18
2022-08-28T09:28:23.567Z,10.75
2022-08-28T09:31:01.375Z,9.05
2022-08-28T09:33:49.556Z,10.15
2022-08-28T09:36:31.881Z,9.13
2022-08-28T09:39:32.542Z,9.88
2022-08-28T09:42:33.057Z,10.57
2022-08-28T09:45:20.157Z,6.00
2022-08-28T09:47:51.092Z,4.75
2022-08-28T09:50:29.031Z,10.00
2022-08-28T09:52:58.601Z,8.55
2022-08-28T09:55:36.037Z,7.18
2022-08-28T09:58:04.033Z,8.18
2022-08-28T10:00:36.097Z,7.22
2022-08-28T10:03:21.398Z,10.80
2022-08-28T10:06:18.616Z,7.10
2022-08-28T10:09:13.659Z,12.07
2022-08-28T10:11:52.268Z,8.57
2022-08-28T10:14:38.256Z,8.40
2022-08-28T10:17:26.007Z,5.45
2022-08-28T10:20:01.831Z,7.85
2022-08-28T10:22:47.715Z,7.88
2022-08-28T10:25:14.167Z,7.88
2022-08-28T10:27:49.811Z,7.20
2022-08-28T10:30:22.887Z,7.10
2022-08-28T10:32:59.565Z,5.85
2022-08-28T10:35:40.066Z,5.28
2022-08-28T10:38:16.237Z,10.02
2022-08-28T10:41:04.148Z,6.60
2022-08-28T10:43:41.538Z,5.53
2022-08-28T10:46:42.616Z,9.33
2022-08-28T10:49:21.294Z,7.55
2022-08-28T10:51:57.165Z,6.57
2022-08-28T10:55:00.250Z,8.27
2022-08-28T10:57:49.065Z,7.90
2022-08-28T11:00:21.862Z,7.60
2022-08-28T11:03:01.015Z,7.22
2022-08-28T11:05:35.798Z,8.68
2022-08-28T11:08:07.771Z,6.65
2022-08-28T11:10:37.088Z,7.45
2022-08-28T11:13:07.116Z,5.53
2022-08-28T11:15:37.159Z,6.45
2022-08-28T11:18:16.382Z,9.13
2022-08-28T11:20:55.518Z,7.20
2022-08-28T11:23:30.057Z,8.50
2022-08-28T11:26:02.241Z,8.48
2022-08-28T11:28:34.696Z,6.93
2022-08-28T11:31:01.179Z,5.80
2022-08-28T11:33:39.926Z,7.88
2022-08-28T11:36:32.579Z,6.25
2022-08-28T11:39:02.993Z,8.48
2022-08-28T11:41:39.106Z,8.02
2022-08-28T11:44:12.385Z,5.85
2022-08-28T11:46:47.462Z,9.98
2022-08-28T11:49:29.209Z,21.02
2022-08-28T11:52:10.918Z,9.98
2022-08-28T11:55:02.423Z,8.40
2022-08-28T12:00:49.276Z,9.00
2022-08-28T12:03:38.418Z,7.50
2022-08-28T12:06:06.837Z,5.75
2022-08-28T12:08:46.603Z,4.65
2022-08-28T12:11:41.149Z,5.68
2022-08-28T12:14:32.007Z,7.30
2022-08-28T12:16:58.461Z,8.90
2022-08-28T12:19:55.929Z,5.85
2022-08-28T12:22:44.504Z,8.05
2022-08-28T12:27:44.834Z,5.82
2022-08-28T12:30:12.161Z,8.65
2022-08-28T12:32:59.850Z,4.60
2022-08-28T12:35:29.840Z,7.35
2022-08-28T12:37:57.330Z,6.95
2022-08-28T12:40:50.384Z,6.18
2022-08-28T12:43:32.140Z,4.80
2022-08-28T12:46:04.028Z,6.53
2022-08-28T12:48:51.507Z,5.53
2022-08-28T12:51:30.979Z,5.77
2022-08-28T12:54:03.822Z,8.77
2022-08-28T12:56:34.124Z,4.43
2022-08-28T12:59:32.505Z,7.15
2022-08-28T13:04:36.888Z,64.00
2022-08-28T13:07:10.888Z,23.48
2022-08-28T13:09:42.238Z,9.68
2022-08-28T13:12:22.905Z,7.45
2022-08-28T13:15:02.657Z,7.03
2022-08-28T13:17:50.529Z,5.72
2022-08-28T13:20:27.984Z,5.10
2022-08-28T13:22:55.544Z,5.00
2022-08-28T13:25:29.513Z,4.20
2022-08-28T13:28:20.559Z,10.65
2022-08-28T13:30:58.123Z,7.43
2022-08-28T13:33:26.848Z,5.50
2022-08-28T13:35:53.917Z,11.18
2022-08-28T13:38:25.039Z,5.55
2022-08-28T13:40:58.438Z,4.07
2022-08-28T13:43:28.555Z,3.75
2022-08-28T13:45:55.616Z,4.63
2022-08-28T13:48:25.139Z,4.55
2022-08-28T13:51:01.685Z,4.60
2022-08-28T14:00:55.477Z,3.03
2022-08-28T14:03:38.138Z,2.67
2022-08-28T14:06:12.442Z,6.93
2022-08-28T14:08:40.679Z,5.63
2022-08-28T14:11:07.737Z,4.53
2022-08-28T14:13:35.964Z,8.05
2022-08-28T14:16:07.882Z,6.68
2022-08-28T14:18:35.041Z,5.63
2022-08-28T14:21:05.048Z,4.57
2022-08-28T14:23:31.631Z,4.72
2022-08-28T14:25:58.187Z,12.00
2022-08-28T14:28:24.697Z,5.30
2022-08-28T14:30:51.862Z,3.58
2022-08-28T14:33:20.523Z,5.68
2022-08-28T14:35:48.883Z,3.08
2022-08-28T14:38:16.070Z,5.55
2022-08-28T14:40:43.689Z,4.57
2022-08-28T14:43:12.115Z,7.10
2022-08-28T14:48:18.428Z,6.03
2022-08-28T14:50:47.973Z,4.38
2022-08-28T14:53:15.752Z,3.08
2022-08-28T14:55:49.986Z,2.60
2022-08-28T14:58:18.311Z,5.57
2022-08-28T15:00:48.905Z,5.40
2022-08-28T15:03:17.275Z,2.97
2022-08-28T15:08:15.300Z,6.25
2022-08-28T15:10:42.869Z,3.08
2022-08-28T15:13:10.666Z,12.47
2022-08-28T15:15:42.572Z,7.82
2022-08-28T15:18:11.031Z,3.30
2022-08-28T15:23:09.617Z,7.03
2022-08-28T15:25:36.209Z,3.80
2022-08-28T15:28:02.936Z,5.05
2022-08-28T15:30:29.624Z,7.35
2022-08-28T15:32:56.246Z,7.78
2022-08-28T15:35:22.848Z,7.88
2022-08-28T15:37:49.456Z,3.58
2022-08-28T15:40:34.468Z,4.97
2022-08-28T15:43:01.181Z,7.15
2022-08-28T15:45:27.834Z,4.00
2022-08-28T15:47:54.697Z,5.97
2022-08-28T15:50:21.322Z,3.83
2022-08-28T15:52:48.457Z,5.30
2022-08-28T15:55:14.984Z,4.90
2022-08-28T15:57:41.517Z,3.58
2022-08-28T16:00:10.532Z,4.60
2022-08-28T16:02:38.523Z,3.90
2022-08-28T16:05:06.058Z,5.70
2022-08-28T16:07:32.728Z,2.80
2022-08-28T16:09:59.227Z,7.82
2022-08-28T16:12:25.752Z,7.18
2022-08-28T16:14:52.380Z,4.18
2022-08-28T16:17:19.009Z,4.25
2022-08-28T16:19:46.589Z,5.47
2022-08-28T16:22:16.757Z,5.20
2022-08-28T16:24:44.985Z,4.97
2022-08-28T16:27:15.400Z,5.97
2022-08-28T16:29:43.263Z,7.22
2022-08-28T16:32:11.797Z,5.65
2022-08-28T16:34:38.947Z,5.47
2022-08-28T16:37:08.003Z,10.55
2022-08-28T16:39:35.811Z,4.80
2022-08-28T16:42:02.399Z,6.47
2022-08-28T16:44:28.900Z,6.57
2022-08-28T16:46:56.025Z,3.42
2022-08-28T16:49:23.891Z,4.13
2022-08-28T16:51:51.126Z,3.97
2022-08-28T16:54:18.423Z,5.10
2022-08-28T16:56:45.691Z,7.05
2022-08-28T16:59:12.632Z,2.85
2022-08-28T17:01:40.946Z,2.30
2022-08-28T17:04:09.556Z,5.18
2022-08-28T17:06:36.119Z,4.80
2022-08-28T17:09:02.650Z,4.47
2022-08-28T17:11:29.386Z,3.72
2022-08-28T17:13:56.827Z,5.38
2022-08-28T17:16:26.010Z,4.68
2022-08-28T17:18:53.011Z,8.43
2022-08-28T17:21:40.117Z,6.05
2022-08-28T17:24:07.374Z,4.65
2022-08-28T17:26:34.017Z,6.15
2022-08-28T17:29:00.614Z,6.47
2022-08-28T17:31:27.446Z,5.00
2022-08-28T17:33:54.351Z,5.35
2022-08-28T17:36:33.411Z,4.60
2022-08-28T17:39:02.307Z,6.95
2022-08-28T17:41:29.069Z,4.15
2022-08-28T17:43:55.565Z,5.65
2022-08-28T17:46:22.530Z,4.45
2022-08-28T17:48:55.690Z,6.72
2022-08-28T17:51:42.925Z,4.68
2022-08-28T17:54:18.383Z,5.75
2022-08-28T17:56:45.055Z,4.72
2022-08-28T17:59:12.504Z,5.90
2022-08-28T18:01:39.341Z,5.63
2022-08-28T18:04:05.944Z,8.48
2022-08-28T18:06:32.752Z,5.53
2022-08-28T18:08:59.388Z,5.53
2022-08-28T18:11:26.213Z,6.60
2022-08-28T18:13:53.078Z,4.20
2022-08-28T18:16:19.616Z,5.03
2022-08-28T18:18:46.258Z,3.33
2022-08-28T18:21:14.124Z,3.60
2022-08-28T18:23:40.741Z,8.80
2022-08-28T18:26:08.582Z,4.53
2022-08-28T18:28:36.976Z,3.45
2022-08-28T18:31:06.595Z,4.95
2022-08-28T18:33:34.307Z,6.97
2022-08-28T18:36:01.117Z,7.67
2022-08-28T18:38:28.632Z,7.03
2022-08-28T18:40:56.190Z,5.43
2022-08-28T18:43:23.971Z,7.22
2022-08-28T18:45:51.322Z,4.53
2022-08-28T18:48:19.217Z,5.53
2022-08-28T18:50:47.473Z,5.65
2022-08-28T18:53:19.368Z,8.00
2022-08-28T18:55:46.106Z,7.30
2022-08-28T18:58:15.452Z,4.00
2022-08-28T19:00:43.615Z,7.13
2022-08-28T19:03:11.027Z,5.22
2022-08-28T19:05:38.538Z,4.82
2022-08-28T19:08:05.596Z,7.00
2022-08-28T19:10:34.718Z,10.32
2022-08-28T19:13:02.620Z,5.63
2022-08-28T19:15:30.214Z,5.90
2022-08-28T19:18:00.292Z,5.50
2022-08-28T19:20:28.099Z,3.40
2022-08-28T19:22:56.284Z,5.57
2022-08-28T19:25:28.194Z,4.70
2022-08-28T19:27:59.790Z,7.38
2022-08-28T19:30:29.060Z,7.97
2022-08-28T19:32:55.863Z,8.63
2022-08-28T19:35:24.173Z,10.93
2022-08-28T19:37:54.303Z,9.27
2022-08-28T19:40:22.240Z,6.93
2022-08-28T19:42:50.062Z,5.57
2022-08-28T19:45:17.929Z,4.95
2022-08-28T19:47:45.398Z,4.97
2022-08-28T19:50:13.910Z,5.95
2022-08-28T19:55:08.902Z,6.03
2022-08-28T19:57:35.583Z,4.50
2022-08-28T20:00:04.068Z,8.82
2022-08-28T20:02:30.645Z,5.38
2022-08-28T20:04:57.519Z,9.25
2022-08-28T20:07:25.098Z,5.72
2022-08-28T20:09:52.369Z,4.85
2022-08-28T20:12:19.458Z,8.02
2022-08-28T20:14:47.125Z,7.00
2022-08-28T20:17:14.064Z,6.37
2022-08-28T20:19:41.210Z,5.57
2022-08-28T20:22:07.724Z,5.85
2022-08-28T20:24:34.499Z,5.68
2022-08-28T20:27:01.007Z,4.28
2022-08-28T20:29:27.543Z,9.07
2022-08-28T20:31:54.180Z,5.78
2022-08-28T20:34:21.310Z,8.73
2022-08-28T20:36:48.535Z,6.20
2022-08-28T20:39:15.571Z,6.93
2022-08-28T20:41:43.887Z,8.48
2022-08-28T20:44:12.898Z,6.57
2022-08-28T20:46:42.100Z,4.57
2022-08-28T20:49:10.909Z,5.03
2022-08-28T20:54:36.503Z,5.40
2022-08-28T20:57:07.793Z,4.90
2022-08-28T20:59:39.525Z,4.95
2022-08-28T21:02:22.944Z,4.07
2022-08-28T21:04:50.247Z,5.93
2022-08-28T21:07:19.954Z,5.35
2022-08-28T21:12:34.595Z,6.68
2022-08-28T21:15:01.277Z,3.63
2022-08-28T21:17:29.777Z,4.38
2022-08-28T21:20:11.646Z,4.65
2022-08-28T21:22:39.412Z,5.35
2022-08-28T21:25:08.827Z,6.57
2022-08-28T21:27:36.359Z,6.57
2022-08-28T21:30:05.024Z,4.07
2022-08-28T21:32:33.854Z,7.05
2022-08-28T21:35:02.331Z,11.27
2022-08-28T21:37:29.170Z,3.83
2022-08-28T21:39:57.867Z,6.32
2022-08-28T21:42:25.044Z,5.93
2022-08-28T21:44:52.252Z,4.63
2022-08-28T21:47:21.448Z,10.95
2022-08-28T21:49:49.525Z,8.23
2022-08-28T21:52:18.549Z,3.72
2022-08-28T21:54:45.121Z,6.50
2022-08-28T21:57:11.705Z,5.90
2022-08-28T21:59:38.951Z,6.45
2022-08-28T22:02:06.015Z,5.60
2022-08-28T22:04:33.020Z,7.15
2022-08-28T22:06:59.505Z,4.63
2022-08-28T22:09:26.095Z,5.20
2022-08-28T22:11:52.669Z,6.47
2022-08-28T22:14:19.231Z,4.68
2022-08-28T22:16:46.414Z,4.53
2022-08-28T22:19:12.991Z,4.15
2022-08-28T22:21:58.120Z,4.43
2022-08-28T22:24:24.720Z,4.18
2022-08-28T22:26:53.250Z,5.30
2022-08-28T22:29:24.745Z,8.20
2022-08-28T22:31:51.473Z,4.32
2022-08-28T22:34:18.699Z,7.43
2022-08-28T22:36:45.198Z,5.63
2022-08-28T22:39:11.739Z,4.03
2022-08-28T22:41:38.656Z,5.18
2022-08-28T22:44:05.313Z,5.57
2022-08-28T22:46:31.822Z,9.30
2022-08-28T22:48:59.251Z,6.63
2022-08-28T22:51:25.735Z,7.38
2022-08-28T22:53:52.491Z,5.88
2022-08-28T22:56:18.985Z,4.97
2022-08-28T22:58:45.726Z,6.07
2022-08-28T23:01:17.499Z,8.00
2022-08-28T23:03:45.111Z,8.25
2022-08-28T23:06:12.398Z,4.70
2022-08-28T23:08:38.899Z,6.13
2022-08-28T23:11:06.292Z,4.25
2022-08-28T23:13:33.013Z,4.70
2022-08-28T23:16:01.491Z,6.85
2022-08-28T23:18:28.756Z,5.63
2022-08-28T23:20:56.093Z,6.80
2022-08-28T23:23:22.956Z,5.88
2022-08-28T23:25:50.502Z,6.18
2022-08-28T23:28:18.395Z,4.28
2022-08-28T23:30:49.528Z,9.60
2022-08-28T23:33:23.815Z,5.80
2022-08-28T23:35:51.612Z,6.20
2022-08-28T23:38:18.423Z,5.03
2022-08-28T23:40:48.084Z,5.40
2022-08-28T23:43:15.207Z,8.15
2022-08-28T23:45:42.896Z,6.28
2022-08-28T23:48:10.036Z,4.90
2022-08-28T23:50:40.317Z,7.03
2022-08-28T23:53:08.427Z,4.97
2022-08-28T23:55:35.986Z,8.18
2022-08-28T23:58:03.363Z,6.50
